Sitka, AK

10:07 AM AKDT on October 01, 2014 (GMT -0800)
Port Alexander | Change Station
CLOSE
Current Station
Airport
Location: Port Alexander,
Elevation: 0 ft
Nearby Weather Stations

Elev 0 ft 56.25 °N, 134.65 °W | Updated 1 hour ago

Clear
Clear
45 °F
Feels Like 38 °F
N
14
Wind Variable Wind from North

Today
High -- | Low -- °F
--% Chance of Precip.
Yesterday
High -- | Low -- °F
Precip. -- in
7:05 AM 6:35 PM
Waxing Crescent, 49% visible
Pressure 30.15 in
Visibility 10.0 miles
Clouds Clear
Windchill 38 °F
Dew Point 32 °F
Humidity 61%
Rainfall 0.00 in
Snow Depth Not available.
UV 1 out of 12
Pollen Not available.
Air Quality Not available.
Flu Activity Not available.
METAR PAAP 011653Z 35012KT 10SM SKC 07/M00 A3015 RMK NO SPECI

More Conditions Fewer Conditions

Pressure 30.15 in
Visibility 10.0 miles
Clouds Clear
Windchill 38 °F
Dew Point 32 °F
Humidity 61%
Rainfall 0.00 in
Snow Depth Not available.
UV 1 out of 12
Pollen Not available.
Air Quality Not available.
Flu Activity Not available.
METAR PAAP 011653Z 35012KT 10SM SKC 07/M00 A3015 RMK NO SPECI

More Conditions Fewer Conditions

10-Day Weather Forecast

Almanac

Astronomy

Oct. 01, 2014 Rise Set
Actual Time 7:05 AM AKDT 6:35 PM AKDT
Civil Twilight 6:27 AM AKDT 7:13 PM AKDT
Nautical Twilight 5:42 AM AKDT 7:57 PM AKDT
Astronomical Twilight 4:56 AM AKDT 8:44 PM AKDT
Moon 3:03 PM AKDT 11:26 PM AKDT
Length of Visible Light 12h 46m
Length of Day
11h 29m
Tomorrow will be 4m 48s shorter.
Waxing Crescent, 49% of the Moon is Illuminated
Today
Waxing Crescent
Oct 1
First Quarter
Oct 8
Full
Oct 15
Last Quarter
Oct 23
New

Today's Extremes

State Highs State Lows

Community

WunderPhotos

Upload Photos

1,758,005 photos uploaded!

WunderBlogs® & News

By Dr. Jeff Masters
Director of Meteorology, Weather Underground
By Kari Strenfel
Meteorologist, Weather Underground
By Christopher C. Burt
Weather Historian, Weather Underground
October 1, 2014
October 1, 2014
October 1, 2014

Nearby

Snow Depth

Station Depth Elevation
Atigun Pass 102 in 4800 ft
Indian Pass 1 in 2300 ft
Eagle Summit 77 in 3650 ft
Little Chena Ridge 2 in 2000 ft
Granite Creek 0 in 1240 ft

Earthquake Activity

City Distance Mag. Time & Date
No recent earthquake activity has been reported nearby.
Minimum magnitude displayed is 2.5.

Coastal Water Temperatures

Place Temperature
No Stations Reporting

Nearby Weather Stations